createdAt,value
2019-03-29T00:01:22.212Z,9.20
2019-03-29T00:03:42.870Z,9.20
2019-03-29T00:06:03.598Z,9.20
2019-03-29T00:08:24.436Z,9.10
2019-03-29T00:10:45.167Z,9.00
2019-03-29T00:13:05.678Z,9.10
2019-03-29T00:15:26.191Z,9.10
2019-03-29T00:17:46.638Z,9.00
2019-03-29T00:20:07.801Z,9.00
2019-03-29T00:22:38.641Z,9.00
2019-03-29T00:24:59.209Z,9.00
2019-03-29T00:27:25.740Z,9.00
2019-03-29T00:29:46.320Z,9.00
2019-03-29T00:32:06.943Z,8.90
2019-03-29T00:34:29.176Z,8.90
2019-03-29T00:36:49.674Z,8.80
2019-03-29T00:39:10.219Z,8.80
2019-03-29T00:41:30.740Z,8.80
2019-03-29T00:43:51.321Z,8.90
2019-03-29T00:46:12.026Z,8.80
2019-03-29T00:48:35.489Z,8.90
2019-03-29T00:50:54.771Z,8.80
2019-03-29T00:53:15.488Z,8.70
2019-03-29T00:55:36.026Z,8.60
2019-03-29T00:57:56.916Z,8.50
2019-03-29T01:00:17.881Z,8.50
2019-03-29T01:02:38.502Z,8.50
2019-03-29T01:04:59.706Z,8.50
2019-03-29T01:07:25.771Z,8.60
2019-03-29T01:09:46.333Z,8.60
2019-03-29T01:12:06.969Z,8.60
2019-03-29T01:14:27.773Z,8.50
2019-03-29T01:16:48.414Z,8.50
2019-03-29T01:19:08.945Z,8.50
2019-03-29T01:21:30.524Z,8.40
2019-03-29T01:23:51.872Z,8.40
2019-03-29T01:26:12.817Z,8.40
2019-03-29T01:28:34.884Z,8.40
2019-03-29T01:30:55.463Z,8.40
2019-03-29T01:33:16.018Z,8.40
2019-03-29T01:35:36.455Z,8.40
2019-03-29T01:37:56.886Z,8.40
2019-03-29T01:40:19.487Z,8.40
2019-03-29T01:42:39.780Z,8.30
2019-03-29T01:45:00.384Z,8.30
2019-03-29T01:47:21.093Z,8.30
2019-03-29T01:49:42.617Z,8.20
2019-03-29T01:52:03.371Z,8.20
2019-03-29T01:54:23.874Z,8.20
2019-03-29T01:56:44.392Z,8.20
2019-03-29T01:59:05.194Z,8.10
2019-03-29T02:01:25.774Z,8.10
2019-03-29T02:03:47.168Z,8.10
2019-03-29T02:06:07.728Z,8.10
2019-03-29T02:08:35.771Z,8.00
2019-03-29T02:10:50.149Z,7.90
2019-03-29T02:13:10.727Z,7.90
2019-03-29T02:15:31.185Z,7.80
2019-03-29T02:17:51.784Z,7.70
2019-03-29T02:20:13.209Z,7.70
2019-03-29T02:22:33.824Z,7.60
2019-03-29T02:24:54.409Z,7.60
2019-03-29T02:27:14.978Z,7.60
2019-03-29T02:29:36.239Z,7.60
2019-03-29T02:31:57.470Z,7.40
2019-03-29T02:34:17.980Z,7.40
2019-03-29T02:36:38.495Z,7.40
2019-03-29T02:38:59.456Z,7.30
2019-03-29T02:41:20.035Z,7.30
2019-03-29T02:43:40.592Z,7.20
2019-03-29T02:46:01.161Z,7.30
2019-03-29T02:48:21.734Z,7.20
2019-03-29T02:50:42.261Z,7.10
2019-03-29T02:53:02.826Z,7.10
2019-03-29T02:55:23.691Z,7.10
2019-03-29T02:57:44.337Z,7.10
2019-03-29T03:00:07.773Z,7.10
2019-03-29T03:02:28.277Z,7.10
2019-03-29T03:04:48.770Z,7.10
2019-03-29T03:07:13.177Z,7.00
2019-03-29T03:09:33.748Z,7.10
2019-03-29T03:11:54.353Z,7.10
2019-03-29T03:14:14.872Z,7.00
2019-03-29T03:16:35.487Z,7.10
2019-03-29T03:18:56.160Z,7.00
2019-03-29T03:21:16.678Z,7.00
2019-03-29T03:23:38.342Z,6.90
2019-03-29T03:25:58.901Z,6.90
2019-03-29T03:28:19.525Z,6.80
2019-03-29T03:30:40.076Z,6.80
2019-03-29T03:33:00.624Z,6.80
2019-03-29T03:35:21.145Z,6.80
2019-03-29T03:37:41.774Z,6.70
2019-03-29T03:40:02.287Z,6.70
2019-03-29T03:42:22.823Z,6.80
2019-03-29T03:44:43.461Z,6.70
2019-03-29T03:47:04.050Z,6.70
2019-03-29T03:49:24.734Z,6.70
2019-03-29T03:51:45.335Z,6.70
2019-03-29T03:54:18.395Z,6.80
2019-03-29T03:56:39.442Z,6.80
2019-03-29T03:59:00.254Z,6.70
2019-03-29T04:01:20.781Z,6.70
2019-03-29T04:03:41.341Z,6.70
2019-03-29T04:06:01.932Z,6.60
2019-03-29T04:08:22.504Z,6.60
2019-03-29T04:10:44.074Z,6.60
2019-03-29T04:13:04.635Z,6.60
2019-03-29T04:15:25.359Z,6.60
2019-03-29T04:17:45.903Z,6.60
2019-03-29T04:20:07.227Z,6.60
2019-03-29T04:22:27.743Z,6.50
2019-03-29T04:24:48.440Z,6.40
2019-03-29T04:27:09.125Z,6.40
2019-03-29T04:29:29.650Z,6.40
2019-03-29T04:31:50.187Z,6.50
2019-03-29T04:34:10.684Z,6.50
2019-03-29T04:36:38.286Z,6.40
2019-03-29T04:38:58.819Z,6.40
2019-03-29T04:41:19.334Z,6.40
2019-03-29T04:43:40.096Z,6.40
2019-03-29T04:46:00.698Z,6.40
2019-03-29T04:48:22.348Z,6.30
2019-03-29T04:50:42.853Z,6.30
2019-03-29T04:53:04.528Z,6.30
2019-03-29T04:55:24.969Z,6.30
2019-03-29T04:57:45.535Z,6.30
2019-03-29T05:00:09.137Z,6.30
2019-03-29T05:02:29.709Z,6.30
2019-03-29T05:04:50.219Z,6.40
2019-03-29T05:07:10.835Z,6.40
2019-03-29T05:09:31.328Z,6.40
2019-03-29T05:11:51.948Z,6.40
2019-03-29T05:14:12.538Z,6.50
2019-03-29T05:16:33.152Z,6.40
2019-03-29T05:18:53.689Z,6.50
2019-03-29T05:21:14.202Z,6.50
2019-03-29T05:23:34.671Z,6.70
2019-03-29T05:25:55.194Z,6.70
2019-03-29T05:28:15.925Z,6.80
2019-03-29T05:30:36.571Z,6.70
2019-03-29T05:32:57.033Z,6.70
2019-03-29T05:35:17.665Z,6.90
2019-03-29T05:37:38.297Z,7.00
2019-03-29T05:39:58.896Z,7.00
2019-03-29T05:42:19.523Z,7.10
2019-03-29T05:44:40.948Z,7.30
2019-03-29T05:47:01.697Z,7.40
2019-03-29T05:49:22.438Z,7.40
2019-03-29T05:51:43.005Z,7.40
2019-03-29T05:54:03.683Z,7.40
2019-03-29T05:56:24.344Z,7.40
2019-03-29T05:58:44.811Z,7.60
2019-03-29T06:01:05.437Z,7.80
2019-03-29T06:03:31.980Z,7.90
2019-03-29T06:05:52.508Z,8.00
2019-03-29T06:08:13.178Z,8.20
2019-03-29T06:10:33.673Z,8.30
2019-03-29T06:12:54.354Z,8.40
2019-03-29T06:15:15.210Z,8.50
2019-03-29T06:17:47.986Z,8.60
2019-03-29T06:19:58.297Z,8.80
2019-03-29T06:22:21.959Z,8.80
2019-03-29T06:24:42.508Z,9.10
2019-03-29T06:27:03.122Z,9.30
2019-03-29T06:31:55.840Z,10.10
2019-03-29T06:34:16.488Z,12.40
2019-03-29T06:36:37.615Z,13.80
2019-03-29T06:38:57.891Z,14.00
2019-03-29T06:41:17.909Z,12.20
2019-03-29T06:43:38.167Z,11.90
2019-03-29T06:46:00.085Z,11.80
2019-03-29T06:48:20.130Z,11.60
2019-03-29T06:50:41.161Z,11.20
2019-03-29T06:53:01.200Z,11.00
2019-03-29T06:55:21.439Z,10.80
2019-03-29T06:57:41.660Z,10.80
2019-03-29T07:00:02.440Z,10.70
2019-03-29T07:02:24.132Z,10.70
2019-03-29T07:04:44.177Z,10.90
2019-03-29T07:07:04.868Z,10.90
2019-03-29T07:09:25.456Z,11.00
2019-03-29T07:11:45.963Z,11.10
2019-03-29T07:14:06.570Z,11.30
2019-03-29T07:16:26.591Z,11.60
2019-03-29T07:18:47.084Z,11.90
2019-03-29T07:21:20.979Z,12.00
2019-03-29T07:23:30.659Z,12.20
2019-03-29T07:25:51.572Z,12.10
2019-03-29T07:28:16.037Z,12.30
2019-03-29T07:30:36.116Z,12.30
2019-03-29T07:32:56.248Z,12.40
2019-03-29T07:35:16.242Z,13.10
2019-03-29T07:37:37.437Z,15.90
2019-03-29T07:39:57.758Z,15.30
2019-03-29T07:42:18.047Z,14.80
2019-03-29T07:44:43.714Z,15.50
2019-03-29T07:47:03.978Z,17.10
2019-03-29T07:49:24.204Z,16.70
2019-03-29T07:51:44.460Z,16.60
2019-03-29T07:54:04.935Z,16.30
2019-03-29T07:56:25.256Z,15.70
2019-03-29T07:58:45.489Z,14.70
2019-03-29T08:01:05.747Z,13.90
2019-03-29T08:03:26.180Z,13.40
2019-03-29T08:05:46.410Z,12.90
2019-03-29T08:08:06.675Z,12.70
2019-03-29T08:10:30.950Z,12.60
2019-03-29T08:12:50.526Z,12.50
2019-03-29T08:15:11.180Z,12.50
2019-03-29T08:17:31.435Z,12.30
2019-03-29T08:20:12.894Z,12.10
2019-03-29T08:22:13.871Z,12.20
2019-03-29T08:24:34.441Z,12.00
2019-03-29T08:26:54.321Z,12.10
2019-03-29T08:29:14.783Z,12.10
2019-03-29T08:31:35.221Z,12.20
2019-03-29T08:33:55.835Z,12.20
2019-03-29T08:36:16.351Z,12.30
2019-03-29T08:38:37.629Z,12.40
2019-03-29T08:40:57.872Z,12.40
2019-03-29T08:43:18.324Z,12.40
2019-03-29T08:45:38.864Z,12.50
2019-03-29T08:47:58.831Z,12.50
2019-03-29T08:50:19.332Z,12.70
2019-03-29T08:52:39.547Z,13.00
2019-03-29T08:54:59.743Z,13.10
2019-03-29T08:57:20.399Z,13.10
2019-03-29T08:59:40.413Z,13.30
2019-03-29T09:02:01.041Z,13.80
2019-03-29T09:04:21.877Z,14.30
2019-03-29T09:06:52.673Z,16.20
2019-03-29T09:09:06.452Z,16.40
2019-03-29T09:11:26.841Z,15.80
2019-03-29T09:13:46.942Z,16.20
2019-03-29T09:16:06.969Z,18.00
2019-03-29T09:18:27.001Z,17.50
2019-03-29T09:20:47.074Z,16.80
2019-03-29T09:23:10.302Z,15.80
2019-03-29T09:25:28.887Z,16.00
2019-03-29T09:27:49.247Z,17.00
2019-03-29T09:30:09.643Z,16.40
2019-03-29T09:32:30.718Z,16.20
2019-03-29T09:34:50.938Z,15.70
2019-03-29T09:37:11.117Z,15.60
2019-03-29T09:39:31.291Z,15.60
2019-03-29T09:41:51.701Z,15.00
2019-03-29T09:44:11.962Z,14.80
2019-03-29T09:46:33.110Z,14.80
2019-03-29T09:48:53.546Z,14.50
2019-03-29T09:51:14.030Z,14.20
2019-03-29T09:53:34.299Z,14.20
2019-03-29T09:55:54.756Z,14.50
2019-03-29T09:58:20.977Z,14.30
2019-03-29T10:00:41.242Z,14.20
2019-03-29T10:03:01.481Z,14.40
2019-03-29T10:05:22.007Z,15.70
2019-03-29T10:07:42.210Z,15.40
2019-03-29T10:10:02.631Z,15.10
2019-03-29T10:12:24.132Z,14.90
2019-03-29T10:14:44.622Z,14.80
2019-03-29T10:17:04.842Z,14.50
2019-03-29T10:19:25.149Z,14.40
2019-03-29T10:21:45.388Z,14.50
2019-03-29T10:24:05.784Z,14.50
2019-03-29T10:26:26.062Z,13.90
2019-03-29T10:28:46.216Z,13.90
2019-03-29T10:31:06.599Z,14.20
2019-03-29T10:33:27.004Z,14.30
2019-03-29T10:35:51.898Z,14.30
2019-03-29T10:38:09.376Z,14.50
2019-03-29T10:40:29.596Z,14.50
2019-03-29T10:42:57.494Z,14.90
2019-03-29T10:45:12.175Z,16.30
2019-03-29T10:47:43.287Z,16.50
2019-03-29T10:49:54.711Z,16.70
2019-03-29T10:52:15.029Z,17.20
2019-03-29T10:54:35.283Z,17.00
2019-03-29T10:56:55.600Z,17.10
2019-03-29T10:59:26.571Z,17.90
2019-03-29T11:01:38.774Z,17.80
2019-03-29T11:03:58.809Z,17.50
2019-03-29T11:06:19.112Z,17.40
2019-03-29T11:08:39.467Z,18.20
2019-03-29T11:10:59.742Z,18.40
2019-03-29T11:13:20.065Z,18.40
2019-03-29T11:15:40.289Z,18.80
2019-03-29T11:18:00.657Z,18.60
2019-03-29T11:20:21.962Z,18.80
2019-03-29T11:22:42.204Z,18.80
2019-03-29T11:25:02.590Z,18.70
2019-03-29T11:27:23.122Z,18.10
2019-03-29T11:29:43.470Z,18.20
2019-03-29T11:32:03.689Z,17.80
2019-03-29T11:34:24.014Z,19.10
2019-03-29T11:36:44.279Z,19.10
2019-03-29T11:39:06.973Z,19.70
2019-03-29T11:41:27.215Z,18.30
2019-03-29T11:43:47.280Z,18.20
2019-03-29T11:46:07.526Z,18.80
2019-03-29T11:48:29.572Z,18.60
2019-03-29T11:50:49.727Z,18.80
2019-03-29T11:53:10.090Z,19.90
2019-03-29T11:55:33.438Z,19.60
2019-03-29T11:57:55.786Z,18.50
2019-03-29T12:00:19.584Z,18.20
2019-03-29T12:02:39.852Z,18.40
2019-03-29T12:04:59.842Z,19.10
2019-03-29T12:07:20.255Z,19.90
2019-03-29T12:09:40.561Z,19.80
2019-03-29T12:12:00.720Z,19.00
2019-03-29T12:14:21.986Z,19.20
2019-03-29T12:16:42.274Z,19.30
2019-03-29T12:19:02.572Z,18.80
2019-03-29T12:21:22.862Z,18.60
2019-03-29T12:23:43.020Z,19.50
2019-03-29T12:26:03.353Z,19.60
2019-03-29T12:28:23.667Z,19.30
2019-03-29T12:30:44.775Z,18.70
2019-03-29T12:33:05.139Z,19.60
2019-03-29T12:35:25.585Z,19.30
2019-03-29T12:37:45.896Z,19.90
2019-03-29T12:40:08.307Z,19.90
2019-03-29T12:42:28.588Z,20.90
2019-03-29T12:44:48.558Z,20.60
2019-03-29T12:47:08.991Z,20.60
2019-03-29T12:49:29.250Z,20.80
2019-03-29T12:51:49.395Z,21.20
2019-03-29T12:54:12.127Z,21.60
2019-03-29T12:56:31.543Z,21.00
2019-03-29T12:58:51.966Z,21.30
2019-03-29T13:01:12.348Z,21.30
2019-03-29T13:03:32.885Z,21.70
2019-03-29T13:05:53.169Z,21.80
2019-03-29T13:08:13.421Z,23.20
2019-03-29T13:10:33.577Z,22.20
2019-03-29T13:12:53.798Z,22.50
2019-03-29T13:15:14.197Z,21.70
2019-03-29T13:17:34.694Z,22.10
2019-03-29T13:19:55.065Z,21.60
2019-03-29T13:22:15.390Z,20.90
2019-03-29T13:24:35.589Z,21.50
2019-03-29T13:26:55.729Z,21.50
2019-03-29T13:29:16.054Z,21.30
2019-03-29T13:31:36.372Z,21.60
2019-03-29T13:33:56.915Z,20.80
2019-03-29T13:36:17.133Z,21.20
2019-03-29T13:38:37.464Z,21.40
2019-03-29T13:40:57.716Z,22.00
2019-03-29T13:43:18.077Z,22.60
2019-03-29T13:45:38.533Z,21.60
2019-03-29T13:47:58.787Z,20.20
2019-03-29T13:50:19.161Z,20.40
2019-03-29T13:52:39.450Z,20.80
2019-03-29T13:54:59.848Z,21.10
2019-03-29T13:57:20.258Z,20.60
2019-03-29T13:59:40.540Z,20.20
2019-03-29T14:02:01.193Z,21.90
2019-03-29T14:04:21.358Z,21.60
2019-03-29T14:06:41.600Z,21.30
2019-03-29T14:09:01.784Z,20.50
2019-03-29T14:11:23.503Z,20.50
2019-03-29T14:13:43.745Z,22.00
2019-03-29T14:16:04.065Z,21.70
2019-03-29T14:18:24.452Z,22.30
2019-03-29T14:20:44.711Z,22.30
2019-03-29T14:23:05.098Z,22.40
2019-03-29T14:25:25.317Z,22.00
2019-03-29T14:27:45.610Z,22.50
2019-03-29T14:30:07.896Z,22.90
2019-03-29T14:32:28.126Z,23.30
2019-03-29T14:34:48.023Z,23.50
2019-03-29T14:37:08.017Z,21.70
2019-03-29T14:39:27.903Z,19.90
2019-03-29T14:41:48.054Z,20.30
2019-03-29T14:44:07.947Z,20.50
2019-03-29T14:46:27.842Z,20.50
2019-03-29T14:48:47.794Z,20.50
2019-03-29T14:51:07.705Z,20.10
2019-03-29T14:53:27.682Z,20.70
2019-03-29T14:55:47.926Z,20.50
2019-03-29T14:58:08.236Z,20.90
2019-03-29T15:00:39.961Z,20.60
2019-03-29T15:03:00.212Z,21.40
2019-03-29T15:05:20.544Z,21.00
2019-03-29T15:07:42.783Z,20.30
2019-03-29T15:10:05.032Z,19.90
2019-03-29T15:12:25.243Z,20.40
2019-03-29T15:14:45.217Z,20.50
2019-03-29T15:17:05.560Z,20.10
2019-03-29T15:19:25.581Z,20.90
2019-03-29T15:21:45.536Z,20.90
2019-03-29T15:24:05.703Z,20.60
2019-03-29T15:26:25.761Z,21.10
2019-03-29T15:28:45.709Z,21.70
2019-03-29T15:31:08.194Z,21.50
2019-03-29T15:33:29.458Z,21.20
2019-03-29T15:35:50.863Z,21.20
2019-03-29T15:38:11.214Z,21.00
2019-03-29T15:40:31.538Z,21.40
2019-03-29T15:42:51.812Z,20.60
2019-03-29T15:45:20.218Z,20.50
2019-03-29T15:47:35.749Z,20.60
2019-03-29T15:49:56.618Z,18.80
2019-03-29T15:52:16.995Z,18.30
2019-03-29T15:54:37.207Z,18.10
2019-03-29T15:56:57.350Z,18.00
2019-03-29T15:59:17.611Z,17.80
2019-03-29T16:01:38.901Z,17.50
2019-03-29T16:03:59.284Z,17.00
2019-03-29T16:06:19.529Z,16.80
2019-03-29T16:08:39.864Z,16.40
2019-03-29T16:11:00.355Z,16.20
2019-03-29T16:13:22.230Z,16.30
2019-03-29T16:15:42.568Z,16.10
2019-03-29T16:18:02.936Z,15.90
2019-03-29T16:20:23.621Z,15.70
2019-03-29T16:22:43.900Z,15.70
2019-03-29T16:25:08.399Z,15.60
2019-03-29T16:27:28.749Z,15.60
2019-03-29T16:29:50.092Z,15.50
2019-03-29T16:32:10.404Z,15.30
2019-03-29T16:34:30.657Z,15.30
2019-03-29T16:36:50.996Z,15.40
2019-03-29T16:39:11.160Z,15.30
2019-03-29T16:41:31.379Z,15.20
2019-03-29T16:43:51.576Z,15.20
2019-03-29T16:46:12.021Z,15.20
2019-03-29T16:48:32.400Z,15.20
2019-03-29T16:50:52.639Z,15.20
2019-03-29T16:53:12.911Z,15.10
2019-03-29T16:55:33.578Z,15.00
2019-03-29T16:57:53.813Z,15.10
2019-03-29T17:00:15.701Z,14.90
2019-03-29T17:02:36.223Z,14.90
2019-03-29T17:04:56.457Z,14.80
2019-03-29T17:07:16.618Z,14.70
2019-03-29T17:09:36.888Z,14.70
2019-03-29T17:11:57.557Z,14.70
2019-03-29T17:14:18.126Z,14.60
2019-03-29T17:16:38.755Z,14.50
2019-03-29T17:18:58.638Z,14.50
2019-03-29T17:21:18.797Z,14.30
2019-03-29T17:23:42.448Z,14.20
2019-03-29T17:26:02.998Z,14.20
2019-03-29T17:28:23.168Z,14.20
2019-03-29T17:30:45.218Z,14.10
2019-03-29T17:33:05.901Z,14.10
2019-03-29T17:35:26.451Z,14.00
2019-03-29T17:37:47.040Z,13.90
2019-03-29T17:40:08.668Z,13.80
2019-03-29T17:42:28.773Z,13.80
2019-03-29T17:44:48.745Z,13.70
2019-03-29T17:47:09.284Z,13.60
2019-03-29T17:49:29.963Z,13.60
2019-03-29T17:51:50.599Z,13.50
2019-03-29T17:54:10.723Z,13.30
2019-03-29T17:56:31.390Z,13.20
2019-03-29T17:58:52.164Z,13.10
2019-03-29T18:01:13.108Z,13.00
2019-03-29T18:03:33.210Z,12.80
2019-03-29T18:05:53.416Z,12.60
2019-03-29T18:08:13.950Z,12.60
2019-03-29T18:10:34.510Z,12.60
2019-03-29T18:12:55.106Z,12.50
2019-03-29T18:15:15.967Z,12.30
2019-03-29T18:17:36.442Z,12.10
2019-03-29T18:19:57.044Z,11.90
2019-03-29T18:22:17.074Z,11.80
2019-03-29T18:24:37.604Z,11.60
2019-03-29T18:26:58.229Z,11.80
2019-03-29T18:29:18.353Z,11.80
2019-03-29T18:31:39.354Z,11.80
2019-03-29T18:34:01.727Z,11.70
2019-03-29T18:36:22.635Z,11.60
2019-03-29T18:38:44.700Z,11.60
2019-03-29T18:41:04.727Z,11.40
2019-03-29T18:43:25.299Z,11.30
2019-03-29T18:45:45.985Z,11.10
2019-03-29T18:48:06.534Z,11.10
2019-03-29T18:50:27.076Z,10.90
2019-03-29T18:52:47.621Z,10.70
2019-03-29T18:55:08.350Z,10.70
2019-03-29T18:57:28.946Z,10.60
2019-03-29T18:59:49.499Z,10.50
2019-03-29T19:02:10.264Z,10.60
2019-03-29T19:04:30.806Z,10.50
2019-03-29T19:06:51.550Z,10.50
2019-03-29T19:09:12.084Z,10.40
2019-03-29T19:11:32.024Z,10.40
2019-03-29T19:13:52.578Z,10.40
2019-03-29T19:16:14.136Z,10.30
2019-03-29T19:18:34.913Z,10.20
2019-03-29T19:20:57.415Z,10.10
2019-03-29T19:23:18.654Z,10.10
2019-03-29T19:25:39.212Z,10.00
2019-03-29T19:27:59.671Z,9.90
2019-03-29T19:30:21.943Z,9.90
2019-03-29T19:32:42.601Z,9.80
2019-03-29T19:35:03.379Z,9.70
2019-03-29T19:37:32.125Z,9.70
2019-03-29T19:39:52.786Z,9.70
2019-03-29T19:42:16.610Z,9.70
2019-03-29T19:44:35.783Z,9.60
2019-03-29T19:46:56.380Z,9.40
2019-03-29T19:49:16.988Z,9.30
2019-03-29T19:51:37.455Z,9.20
2019-03-29T19:54:07.121Z,9.30
2019-03-29T19:56:20.246Z,9.30
2019-03-29T19:58:40.897Z,9.50
2019-03-29T20:01:01.494Z,9.40
2019-03-29T20:03:22.154Z,9.30
2019-03-29T20:05:42.860Z,9.20
2019-03-29T20:08:03.537Z,9.00
2019-03-29T20:10:24.419Z,8.90
2019-03-29T20:12:44.961Z,8.80
2019-03-29T20:15:06.655Z,8.70
2019-03-29T20:17:27.969Z,8.70
2019-03-29T20:19:48.631Z,8.50
2019-03-29T20:22:09.256Z,8.60
2019-03-29T20:24:29.743Z,8.50
2019-03-29T20:26:50.434Z,8.50
2019-03-29T20:29:10.965Z,8.50
2019-03-29T20:31:33.616Z,8.50
2019-03-29T20:33:54.115Z,8.90
2019-03-29T20:36:22.354Z,8.80
2019-03-29T20:38:37.217Z,8.70
2019-03-29T20:40:57.764Z,8.60
2019-03-29T20:43:18.301Z,8.60
2019-03-29T20:45:38.894Z,8.60
2019-03-29T20:47:59.547Z,8.70
2019-03-29T20:50:20.288Z,8.70
2019-03-29T20:52:40.939Z,8.30
2019-03-29T20:55:01.500Z,8.10
2019-03-29T20:57:21.959Z,8.20
2019-03-29T20:59:42.600Z,8.10
2019-03-29T21:02:03.127Z,8.20
2019-03-29T21:04:23.754Z,8.40
2019-03-29T21:06:44.277Z,8.20
2019-03-29T21:09:07.093Z,8.20
2019-03-29T21:11:27.527Z,8.00
2019-03-29T21:13:48.291Z,7.90
2019-03-29T21:16:08.943Z,7.80
2019-03-29T21:18:29.550Z,7.70
2019-03-29T21:20:50.086Z,7.70
2019-03-29T21:23:10.716Z,7.60
2019-03-29T21:25:31.172Z,7.50
2019-03-29T21:27:52.033Z,7.50
2019-03-29T21:30:13.301Z,7.30
2019-03-29T21:32:33.839Z,7.30
2019-03-29T21:34:54.317Z,7.30
2019-03-29T21:37:14.904Z,7.30
2019-03-29T21:39:35.485Z,7.10
2019-03-29T21:41:56.157Z,7.10
2019-03-29T21:44:16.642Z,7.00
2019-03-29T21:46:37.118Z,7.10
2019-03-29T21:49:01.635Z,7.10
2019-03-29T21:51:23.261Z,7.00
2019-03-29T21:53:45.151Z,6.90
2019-03-29T21:56:05.752Z,6.80
2019-03-29T21:58:26.235Z,6.60
2019-03-29T22:00:47.763Z,6.50
2019-03-29T22:03:10.320Z,6.60
2019-03-29T22:05:30.692Z,6.60
2019-03-29T22:07:51.234Z,6.60
2019-03-29T22:10:12.066Z,6.50
2019-03-29T22:12:32.751Z,6.40
2019-03-29T22:14:57.115Z,6.40
2019-03-29T22:17:18.710Z,6.40
2019-03-29T22:19:39.303Z,6.30
2019-03-29T22:21:59.829Z,6.20
2019-03-29T22:24:20.307Z,6.20
2019-03-29T22:26:40.810Z,6.20
2019-03-29T22:29:02.479Z,6.30
2019-03-29T22:31:22.963Z,6.30
2019-03-29T22:33:43.535Z,6.20
2019-03-29T22:36:04.088Z,6.10
2019-03-29T22:38:24.709Z,6.10
2019-03-29T22:40:45.318Z,6.10
2019-03-29T22:43:07.411Z,6.00
2019-03-29T22:45:27.640Z,6.00
2019-03-29T22:47:48.142Z,6.00
2019-03-29T22:50:09.150Z,5.80
2019-03-29T22:52:30.758Z,5.80
2019-03-29T22:54:51.287Z,5.80
2019-03-29T22:57:12.556Z,5.70
2019-03-29T22:59:33.129Z,5.70
2019-03-29T23:01:53.962Z,5.60
2019-03-29T23:04:14.644Z,5.60
2019-03-29T23:06:35.588Z,5.60
2019-03-29T23:08:56.234Z,5.60
2019-03-29T23:11:16.981Z,5.60
2019-03-29T23:13:37.543Z,5.60
2019-03-29T23:15:58.143Z,5.60
2019-03-29T23:18:19.090Z,5.60
2019-03-29T23:20:40.104Z,5.50
2019-03-29T23:23:00.693Z,5.40
2019-03-29T23:25:21.243Z,5.20
2019-03-29T23:27:41.831Z,5.20
2019-03-29T23:30:04.170Z,5.10
2019-03-29T23:32:24.290Z,5.10
2019-03-29T23:34:44.906Z,5.10
2019-03-29T23:37:05.652Z,5.10
2019-03-29T23:39:26.117Z,5.00
2019-03-29T23:41:47.056Z,5.00
2019-03-29T23:44:07.733Z,5.00
2019-03-29T23:46:28.211Z,4.90
2019-03-29T23:48:48.754Z,4.90
2019-03-29T23:51:09.213Z,4.80
2019-03-29T23:53:29.750Z,4.80
2019-03-29T23:55:50.307Z,4.80
2019-03-29T23:58:10.791Z,4.80
